Time;durP1;ratioP1;P1;durP2;ratioP2;P2;SDS_P1;SDS_P2;PMS_P1;PMS_P2;Temp;Humidity;BMP_temperature;BMP_pressure;BME280_temperature;BME280_humidity;BME280_pressure;Samples;Min_cycle;Max_cycle;Signal;HPM_P1;HPM_P2
2023/08/01 00:00:00;;;;;;;7.90;5.18;;;17.70;99.90;;;;;;5080252;28;20665;-61
2023/08/01 00:02:29;;;;;;;11.27;5.25;;;17.70;99.90;;;;;;5088381;28;20337;-63
2023/08/01 00:04:57;;;;;;;9.40;5.63;;;17.70;99.90;;;;;;5088804;28;20196;-59
2023/08/01 00:07:25;;;;;;;7.90;5.90;;;17.80;99.90;;;;;;5079870;28;20247;-60
2023/08/01 00:09:53;;;;;;;6.90;5.13;;;17.70;99.90;;;;;;5088317;28;20222;-59
2023/08/01 00:12:21;;;;;;;14.63;5.57;;;17.70;99.90;;;;;;5091952;28;20279;-60
2023/08/01 00:14:49;;;;;;;7.60;5.32;;;17.70;99.90;;;;;;5075262;28;20287;-58
2023/08/01 00:17:17;;;;;;;12.70;5.65;;;17.80;99.90;;;;;;5085629;28;20220;-59
2023/08/01 00:19:46;;;;;;;11.20;5.70;;;17.80;99.90;;;;;;5082514;28;20287;-61
2023/08/01 00:22:14;;;;;;;9.75;5.35;;;17.70;99.90;;;;;;5077897;28;20254;-62
2023/08/01 00:24:42;;;;;;;13.35;5.97;;;17.70;99.90;;;;;;5088481;28;20275;-62
2023/08/01 00:27:10;;;;;;;9.90;5.78;;;17.70;99.90;;;;;;5077415;28;20255;-63
2023/08/01 00:29:38;;;;;;;8.65;5.22;;;17.70;99.90;;;;;;5082599;28;20205;-62
2023/08/01 00:32:07;;;;;;;16.17;5.80;;;17.70;99.90;;;;;;5085093;28;20208;-59
2023/08/01 00:34:35;;;;;;;7.68;5.55;;;17.70;99.90;;;;;;5075414;28;20307;-61
2023/08/01 00:37:04;;;;;;;9.88;5.78;;;17.70;99.90;;;;;;5087392;28;20678;-62
2023/08/01 00:39:32;;;;;;;7.35;5.13;;;17.60;99.90;;;;;;5080451;28;20240;-59
2023/08/01 00:42:00;;;;;;;7.53;4.88;;;17.70;99.90;;;;;;5079224;28;20240;-60
2023/08/01 00:44:28;;;;;;;7.22;5.05;;;17.60;99.90;;;;;;5088256;28;20265;-61
2023/08/01 00:46:56;;;;;;;7.20;4.80;;;17.70;99.90;;;;;;5058641;28;20269;-60
2023/08/01 00:49:24;;;;;;;7.25;4.60;;;17.60;99.90;;;;;;5087296;28;20264;-64
2023/08/01 00:51:51;;;;;;;7.57;5.25;;;17.60;99.90;;;;;;5089143;28;20283;-64
2023/08/01 00:54:21;;;;;;;9.32;5.55;;;17.60;99.90;;;;;;5082498;28;20308;-63
2023/08/01 00:56:48;;;;;;;7.93;4.13;;;17.50;99.90;;;;;;5093666;28;20286;-63
2023/08/01 00:59:16;;;;;;;8.32;4.82;;;17.50;99.90;;;;;;5083196;28;20220;-63
2023/08/01 01:01:44;;;;;;;7.10;4.35;;;17.50;99.90;;;;;;5087291;28;20196;-63
2023/08/01 01:04:12;;;;;;;10.05;4.38;;;17.50;99.90;;;;;;5091807;28;20231;-64
2023/08/01 01:06:42;;;;;;;6.60;4.82;;;17.50;99.90;;;;;;5080896;28;20252;-63
2023/08/01 01:09:20;;;;;;;5.30;4.25;;;17.50;99.90;;;;;;5092796;28;20577;-64
2023/08/01 01:11:48;;;;;;;8.90;5.35;;;17.50;99.90;;;;;;5097653;28;20621;-63
2023/08/01 01:14:16;;;;;;;8.57;5.22;;;17.40;99.90;;;;;;5097072;28;20219;-61
2023/08/01 01:16:44;;;;;;;8.20;4.90;;;17.50;99.90;;;;;;5079949;28;20289;-63
2023/08/01 01:19:12;;;;;;;7.97;4.88;;;17.40;99.90;;;;;;5091062;28;20635;-62
2023/08/01 01:21:41;;;;;;;10.52;5.18;;;17.50;99.90;;;;;;5086458;28;20228;-62
2023/08/01 01:24:11;;;;;;;8.30;4.32;;;17.40;99.90;;;;;;5083319;28;20687;-63
2023/08/01 01:26:39;;;;;;;10.32;5.72;;;17.40;99.90;;;;;;5093264;28;20247;-62
2023/08/01 01:29:08;;;;;;;14.52;4.80;;;17.40;99.90;;;;;;5081882;28;20235;-63
2023/08/01 01:31:36;;;;;;;8.20;4.97;;;17.40;99.90;;;;;;5087530;28;20287;-61
2023/08/01 01:34:04;;;;;;;7.82;4.82;;;17.40;99.90;;;;;;5090241;28;20265;-63
2023/08/01 01:36:32;;;;;;;6.85;5.00;;;17.40;99.90;;;;;;5079887;28;20299;-63
2023/08/01 01:39:01;;;;;;;9.88;5.70;;;17.50;99.90;;;;;;5092743;28;20465;-63
2023/08/01 01:41:29;;;;;;;7.57;4.78;;;17.50;99.90;;;;;;5085305;28;20200;-63
2023/08/01 01:43:57;;;;;;;10.23;4.60;;;17.40;99.90;;;;;;5096662;28;20193;-63
2023/08/01 01:46:25;;;;;;;6.65;4.93;;;17.50;99.90;;;;;;5080660;28;20284;-63
2023/08/01 01:48:53;;;;;;;10.15;5.30;;;17.50;99.90;;;;;;5093053;28;20673;-63
2023/08/01 01:51:22;;;;;;;11.30;5.13;;;17.50;99.90;;;;;;5083326;28;20236;-62
2023/08/01 01:53:49;;;;;;;9.05;4.75;;;17.50;99.90;;;;;;5084926;28;20284;-63
2023/08/01 01:56:19;;;;;;;7.93;5.40;;;17.40;99.90;;;;;;5091724;28;20277;-63
2023/08/01 01:58:47;;;;;;;9.90;4.88;;;17.50;99.90;;;;;;5080330;28;20224;-63
2023/08/01 02:01:14;;;;;;;7.43;4.10;;;17.40;99.90;;;;;;5092160;28;20201;-64
2023/08/01 02:03:43;;;;;;;8.73;4.97;;;17.40;99.90;;;;;;5089865;28;20228;-63
2023/08/01 02:06:10;;;;;;;8.45;4.63;;;17.40;99.90;;;;;;5086086;28;20638;-63
2023/08/01 02:08:38;;;;;;;8.80;5.03;;;17.40;99.90;;;;;;5096357;28;20279;-63
2023/08/01 02:11:06;;;;;;;10.23;4.65;;;17.50;99.90;;;;;;5097768;28;20275;-63
2023/08/01 02:13:35;;;;;;;8.32;4.80;;;17.50;99.90;;;;;;5090903;28;20228;-62
2023/08/01 02:16:03;;;;;;;6.88;4.78;;;17.50;99.90;;;;;;5092501;28;20228;-62
2023/08/01 02:18:31;;;;;;;7.20;4.82;;;17.50;99.90;;;;;;5083351;28;20255;-62
2023/08/01 02:20:59;;;;;;;10.88;4.70;;;17.50;99.90;;;;;;5096275;28;20201;-64
2023/08/01 02:23:28;;;;;;;8.98;5.07;;;17.50;99.90;;;;;;5088257;28;20253;-63
2023/08/01 02:25:56;;;;;;;9.32;4.32;;;17.50;99.90;;;;;;5088146;28;20250;-63
2023/08/01 02:28:24;;;;;;;7.55;4.70;;;17.50;99.90;;;;;;5095727;28;20203;-62
2023/08/01 02:30:53;;;;;;;7.40;4.35;;;17.50;99.90;;;;;;5083175;28;20268;-62
2023/08/01 02:33:21;;;;;;;9.52;4.95;;;17.50;99.90;;;;;;5092946;28;20717;-63
2023/08/01 02:35:49;;;;;;;7.93;4.90;;;17.50;99.90;;;;;;5089847;28;20259;-62
2023/08/01 02:38:17;;;;;;;8.15;5.05;;;17.40;99.90;;;;;;5084961;28;20204;-63
2023/08/01 02:40:45;;;;;;;11.63;5.13;;;17.40;99.90;;;;;;5097189;28;20253;-62
2023/08/01 02:43:13;;;;;;;10.43;4.57;;;17.40;99.90;;;;;;5085650;28;20203;-63
2023/08/01 02:45:42;;;;;;;7.03;4.65;;;17.40;99.90;;;;;;5089657;28;20196;-63
2023/08/01 02:48:12;;;;;;;7.50;4.72;;;17.40;99.90;;;;;;5093763;28;20207;-63
2023/08/01 02:50:40;;;;;;;10.80;5.15;;;17.50;99.90;;;;;;5082738;28;20205;-62
2023/08/01 02:53:07;;;;;;;10.10;5.18;;;17.50;99.90;;;;;;5094000;28;20272;-63
2023/08/01 02:55:35;;;;;;;9.60;4.28;;;17.50;99.90;;;;;;5087883;28;20248;-63
2023/08/01 02:58:03;;;;;;;9.38;4.60;;;17.50;99.90;;;;;;5132595;22;20250;-62
2023/08/01 03:00:32;;;;;;;8.60;4.40;;;17.50;99.90;;;;;;5114349;28;20256;-62
2023/08/01 03:02:59;;;;;;;5.38;4.20;;;17.50;99.90;;;;;;5110006;28;20210;-62
2023/08/01 03:05:29;;;;;;;8.75;4.88;;;17.50;99.90;;;;;;5102857;28;20200;-62
2023/08/01 03:07:57;;;;;;;6.47;4.10;;;17.50;99.90;;;;;;5113749;28;20310;-59
2023/08/01 03:10:24;;;;;;;6.47;4.10;;;17.50;99.90;;;;;;5102522;28;20261;-59
2023/08/01 03:13:03;;;;;;;6.88;3.70;;;17.50;99.90;;;;;;5081670;28;20192;-59
2023/08/01 03:15:31;;;;;;;6.38;3.90;;;17.50;99.90;;;;;;5104552;28;20223;-59
2023/08/01 03:17:59;;;;;;;6.72;3.95;;;17.50;99.90;;;;;;5099246;28;20220;-59
2023/08/01 03:20:28;;;;;;;4.07;3.60;;;17.50;99.90;;;;;;5109891;28;20227;-59
2023/08/01 03:22:56;;;;;;;6.63;3.90;;;17.50;99.90;;;;;;5081000;28;20200;-59
2023/08/01 03:25:24;;;;;;;8.65;3.53;;;17.50;99.90;;;;;;5100846;28;20242;-59
2023/08/01 03:27:52;;;;;;;5.30;3.97;;;17.50;99.90;;;;;;5104726;28;20793;-59
2023/08/01 03:30:20;;;;;;;4.78;3.53;;;17.50;99.90;;;;;;5113913;28;20286;-59
2023/08/01 03:32:48;;;;;;;5.57;3.38;;;17.50;99.90;;;;;;5108710;28;20208;-59
2023/08/01 03:35:16;;;;;;;7.90;3.60;;;17.60;99.90;;;;;;5099886;28;20234;-59
2023/08/01 03:37:46;;;;;;;3.75;3.38;;;17.60;99.90;;;;;;5103308;28;20272;-59
2023/08/01 03:40:13;;;;;;;7.40;3.80;;;17.60;99.90;;;;;;5110159;28;20281;-60
2023/08/01 03:42:41;;;;;;;3.92;3.20;;;17.60;99.90;;;;;;5113241;28;20287;-59
2023/08/01 03:45:10;;;;;;;4.63;2.80;;;17.60;99.90;;;;;;5113083;28;20640;-60
2023/08/01 03:47:38;;;;;;;5.10;3.40;;;17.60;99.90;;;;;;5110612;28;20733;-60
2023/08/01 03:50:07;;;;;;;10.85;4.43;;;17.60;99.90;;;;;;5106552;28;20819;-60
2023/08/01 03:52:35;;;;;;;6.05;3.33;;;17.60;99.90;;;;;;5111128;28;20301;-60
2023/08/01 03:55:05;;;;;;;8.73;3.50;;;17.60;99.90;;;;;;5112770;28;20212;-59
2023/08/01 03:57:33;;;;;;;7.70;4.05;;;17.60;99.90;;;;;;5112600;28;20231;-59
2023/08/01 04:00:03;;;;;;;7.38;3.88;;;17.60;99.90;;;;;;5112675;28;20207;-60
2023/08/01 04:02:31;;;;;;;5.35;4.18;;;17.60;99.90;;;;;;5103234;28;20574;-60
2023/08/01 04:04:59;;;;;;;4.65;3.63;;;17.60;99.90;;;;;;5112650;28;20199;-59
2023/08/01 04:07:27;;;;;;;5.72;3.65;;;17.60;99.90;;;;;;5109532;28;20262;-59
2023/08/01 04:09:55;;;;;;;5.18;4.20;;;17.60;99.90;;;;;;5105123;28;20884;-59
2023/08/01 04:12:24;;;;;;;4.80;3.65;;;17.60;99.90;;;;;;5103663;28;20958;-59
2023/08/01 04:14:52;;;;;;;5.55;4.25;;;17.60;99.90;;;;;;5096005;28;20242;-59
2023/08/01 04:17:20;;;;;;;6.97;3.92;;;17.60;99.90;;;;;;5099987;28;20223;-59
2023/08/01 04:19:48;;;;;;;8.77;4.53;;;17.60;99.90;;;;;;5102959;28;20235;-60
2023/08/01 04:22:16;;;;;;;7.90;3.70;;;17.60;99.90;;;;;;5101267;28;20245;-59
2023/08/01 04:24:44;;;;;;;7.28;3.80;;;17.60;99.90;;;;;;5110500;28;20282;-59
2023/08/01 04:27:12;;;;;;;4.70;3.97;;;17.60;99.90;;;;;;5112404;28;20247;-60
2023/08/01 04:29:41;;;;;;;9.48;4.10;;;17.60;99.90;;;;;;5112365;28;20698;-59
2023/08/01 04:32:12;;;;;;;8.15;4.28;;;17.60;99.90;;;;;;5112441;28;20602;-59
2023/08/01 04:34:40;;;;;;;5.90;3.80;;;17.60;99.90;;;;;;5112163;28;20196;-59
2023/08/01 04:37:10;;;;;;;6.18;4.20;;;17.60;99.90;;;;;;5111808;28;20765;-59
2023/08/01 04:39:38;;;;;;;6.97;3.83;;;17.60;99.90;;;;;;5111959;28;20257;-60
2023/08/01 04:42:06;;;;;;;6.13;4.03;;;17.60;99.90;;;;;;5112589;28;20200;-59
2023/08/01 04:44:34;;;;;;;4.00;3.70;;;17.60;99.90;;;;;;5112008;28;20283;-60
2023/08/01 04:47:04;;;;;;;8.15;4.03;;;17.50;99.90;;;;;;5102016;28;20251;-60
2023/08/01 04:49:32;;;;;;;7.53;3.80;;;17.50;99.90;;;;;;5111706;28;20197;-59
2023/08/01 04:52:01;;;;;;;4.20;3.80;;;17.50;99.90;;;;;;5111672;28;20776;-59
2023/08/01 04:54:29;;;;;;;5.90;3.85;;;17.50;99.90;;;;;;5111307;28;20208;-59
2023/08/01 04:56:56;;;;;;;7.15;3.55;;;17.50;99.90;;;;;;5078459;28;20668;-59
2023/08/01 04:59:24;;;;;;;6.28;3.60;;;17.50;99.90;;;;;;5111985;28;20230;-60
2023/08/01 05:01:52;;;;;;;6.35;4.10;;;17.50;99.90;;;;;;5111383;28;20331;-59
2023/08/01 05:04:22;;;;;;;6.50;3.75;;;17.50;99.90;;;;;;5089938;28;20298;-59
2023/08/01 05:06:50;;;;;;;10.10;4.05;;;17.50;99.90;;;;;;5093390;28;20289;-61
2023/08/01 05:09:18;;;;;;;5.65;3.22;;;17.50;99.90;;;;;;5091269;28;20294;-61
2023/08/01 05:11:46;;;;;;;5.30;3.50;;;17.50;99.90;;;;;;5092363;28;20242;-61
2023/08/01 05:14:13;;;;;;;5.20;3.20;;;17.40;99.90;;;;;;5094334;28;20250;-61
2023/08/01 05:16:41;;;;;;;5.97;3.33;;;17.50;99.90;;;;;;5107048;28;20265;-62
2023/08/01 05:19:10;;;;;;;4.35;3.00;;;17.40;99.90;;;;;;5094784;28;20206;-62
2023/08/01 05:21:39;;;;;;;5.45;3.17;;;17.40;99.90;;;;;;5101326;28;20234;-62
2023/08/01 05:24:07;;;;;;;6.82;3.47;;;17.40;99.90;;;;;;5111389;28;20264;-62
2023/08/01 05:26:35;;;;;;;3.20;2.90;;;17.40;99.90;;;;;;5110990;28;20272;-62
2023/08/01 05:29:03;;;;;;;4.68;3.03;;;17.40;99.90;;;;;;5111690;28;20214;-62
2023/08/01 05:31:31;;;;;;;3.70;3.03;;;17.40;99.90;;;;;;5111634;28;20230;-64
2023/08/01 05:33:59;;;;;;;4.13;2.95;;;17.40;99.90;;;;;;5111319;28;20222;-64
2023/08/01 05:36:27;;;;;;;6.40;2.72;;;17.40;99.90;;;;;;5113012;28;20276;-64
2023/08/01 05:38:56;;;;;;;3.63;3.22;;;17.40;99.90;;;;;;5115464;28;20249;-64
2023/08/01 05:41:24;;;;;;;5.82;2.78;;;17.40;99.90;;;;;;5116101;28;20219;-64
2023/08/01 05:43:53;;;;;;;3.50;2.80;;;17.40;99.90;;;;;;5115324;28;20735;-64
2023/08/01 05:46:21;;;;;;;7.25;3.00;;;17.40;99.90;;;;;;5115181;28;20283;-64
2023/08/01 05:48:49;;;;;;;2.83;2.60;;;17.40;99.90;;;;;;5115524;28;20246;-64
2023/08/01 05:51:17;;;;;;;2.65;2.45;;;17.40;99.90;;;;;;5115863;28;20227;-64
2023/08/01 05:53:45;;;;;;;3.35;3.05;;;17.30;99.90;;;;;;5114232;28;20206;-63
2023/08/01 05:56:14;;;;;;;3.22;2.88;;;17.30;99.90;;;;;;5107624;28;20310;-63
2023/08/01 05:58:42;;;;;;;2.78;2.58;;;17.30;99.90;;;;;;5113289;28;20207;-61
2023/08/01 06:01:11;;;;;;;4.07;2.63;;;17.30;99.90;;;;;;5115479;28;20282;-62
2023/08/01 06:03:39;;;;;;;3.35;2.90;;;17.30;99.90;;;;;;5114687;28;20576;-62
2023/08/01 06:06:07;;;;;;;3.63;3.03;;;17.30;99.90;;;;;;5113883;28;20208;-61
2023/08/01 06:08:35;;;;;;;6.78;2.97;;;17.30;99.90;;;;;;5115133;28;20224;-61
2023/08/01 06:11:03;;;;;;;3.05;2.83;;;17.30;99.90;;;;;;5099705;28;20741;-62
2023/08/01 06:13:32;;;;;;;4.03;3.40;;;17.30;99.90;;;;;;5103664;28;20223;-62
2023/08/01 06:16:00;;;;;;;3.92;3.22;;;17.20;99.90;;;;;;5110417;28;20243;-61
2023/08/01 06:18:28;;;;;;;5.97;3.38;;;17.20;99.90;;;;;;5110503;28;20220;-62
2023/08/01 06:20:56;;;;;;;4.85;3.75;;;17.30;99.90;;;;;;5081638;28;20263;-62
2023/08/01 06:23:24;;;;;;;4.40;3.55;;;17.30;99.90;;;;;;5114958;28;20290;-63
2023/08/01 06:25:52;;;;;;;3.70;3.38;;;17.30;99.90;;;;;;5114400;28;20228;-62
2023/08/01 06:28:20;;;;;;;4.63;3.35;;;17.30;99.90;;;;;;5115010;28;20268;-61
2023/08/01 06:30:49;;;;;;;3.38;3.10;;;17.20;99.90;;;;;;5114485;28;20208;-62
2023/08/01 06:33:17;;;;;;;4.47;2.97;;;17.30;99.90;;;;;;5114759;28;20272;-62
2023/08/01 06:35:45;;;;;;;5.70;3.17;;;17.30;99.90;;;;;;5114483;28;20227;-61
2023/08/01 06:38:12;;;;;;;4.20;2.70;;;17.30;99.90;;;;;;5114353;28;20255;-63
2023/08/01 06:40:40;;;;;;;3.88;3.05;;;17.30;99.90;;;;;;5114558;28;20256;-60
2023/08/01 06:43:08;;;;;;;3.35;2.58;;;17.30;99.90;;;;;;5110036;28;20282;-61
2023/08/01 06:45:36;;;;;;;2.28;2.13;;;17.30;99.90;;;;;;5098594;28;20228;-61
2023/08/01 06:48:05;;;;;;;3.55;2.60;;;17.30;99.90;;;;;;5098570;28;20282;-60
2023/08/01 06:50:33;;;;;;;2.75;2.35;;;17.30;99.90;;;;;;5111451;28;20662;-61
2023/08/01 06:53:01;;;;;;;3.05;2.50;;;17.30;99.90;;;;;;5114102;28;20218;-61
2023/08/01 06:55:29;;;;;;;5.20;2.47;;;17.30;99.90;;;;;;5114398;28;20271;-61
2023/08/01 06:57:57;;;;;;;3.38;2.17;;;17.30;99.90;;;;;;5113922;28;20224;-61
2023/08/01 07:00:25;;;;;;;4.72;1.95;;;17.30;99.90;;;;;;5106640;28;20231;-61
2023/08/01 07:02:53;;;;;;;3.67;1.40;;;17.40;99.90;;;;;;5112591;28;20690;-60
2023/08/01 07:05:23;;;;;;;1.25;1.00;;;17.40;99.90;;;;;;5113811;28;20195;-61
2023/08/01 07:07:51;;;;;;;3.55;1.15;;;17.60;99.90;;;;;;5113088;28;20625;-59
2023/08/01 07:10:20;;;;;;;1.60;1.15;;;17.70;99.90;;;;;;5102858;28;20257;-61
2023/08/01 07:12:48;;;;;;;3.67;1.10;;;17.80;99.90;;;;;;5112628;28;20203;-61
2023/08/01 07:15:16;;;;;;;0.80;0.80;;;17.90;99.90;;;;;;5113812;28;20286;-61
2023/08/01 07:17:43;;;;;;;3.42;1.00;;;17.90;99.90;;;;;;5113976;28;20671;-61
2023/08/01 07:20:12;;;;;;;3.63;1.00;;;18.00;99.90;;;;;;5113801;28;20207;-61
2023/08/01 07:22:41;;;;;;;0.80;0.40;;;18.00;99.90;;;;;;5114260;28;20257;-61
2023/08/01 07:25:11;;;;;;;0.98;0.50;;;18.00;99.90;;;;;;5113513;28;20223;-61
2023/08/01 07:27:39;;;;;;;1.98;0.60;;;18.00;99.90;;;;;;5113781;28;20247;-61
2023/08/01 07:30:09;;;;;;;0.68;0.68;;;18.00;99.90;;;;;;5113580;28;20204;-61
2023/08/01 07:32:38;;;;;;;2.15;0.63;;;18.00;99.90;;;;;;5113716;28;20202;-61
2023/08/01 07:35:07;;;;;;;2.45;0.35;;;18.00;99.90;;;;;;5113280;28;20661;-61
2023/08/01 07:37:35;;;;;;;0.63;0.50;;;18.10;99.90;;;;;;5113398;28;20227;-61
2023/08/01 07:40:05;;;;;;;0.30;0.30;;;18.10;99.90;;;;;;5113466;28;20249;-61
2023/08/01 07:42:33;;;;;;;1.10;0.30;;;18.20;99.90;;;;;;5113659;28;20238;-61
2023/08/01 07:45:01;;;;;;;1.15;0.38;;;18.20;99.90;;;;;;5112853;28;20199;-62
2023/08/01 07:47:29;;;;;;;0.55;0.30;;;18.20;99.90;;;;;;5113281;28;20709;-62
2023/08/01 07:49:57;;;;;;;3.95;0.50;;;18.20;99.90;;;;;;5113279;28;20199;-62
2023/08/01 07:52:25;;;;;;;0.20;0.20;;;18.30;99.90;;;;;;5113366;28;20246;-62
2023/08/01 07:54:53;;;;;;;1.65;0.30;;;18.30;99.90;;;;;;5112787;28;20256;-62
2023/08/01 07:57:22;;;;;;;0.77;0.43;;;18.40;99.90;;;;;;5112891;28;20234;-62
2023/08/01 07:59:50;;;;;;;0.40;0.40;;;18.40;99.90;;;;;;5112574;28;20294;-62
2023/08/01 08:02:18;;;;;;;1.55;0.30;;;18.50;99.90;;;;;;5112943;28;20655;-62
2023/08/01 08:04:46;;;;;;;0.30;0.30;;;18.70;99.90;;;;;;5112722;28;20230;-62
2023/08/01 08:07:14;;;;;;;0.40;0.40;;;18.80;99.90;;;;;;5113113;28;20278;-61
2023/08/01 08:09:42;;;;;;;2.28;0.45;;;18.90;99.90;;;;;;5107098;28;20254;-62
2023/08/01 08:12:10;;;;;;;1.08;0.40;;;19.00;99.90;;;;;;5106395;28;20199;-63
2023/08/01 08:14:39;;;;;;;1.30;0.30;;;19.10;99.90;;;;;;5111491;28;20250;-63
2023/08/01 08:17:07;;;;;;;1.55;0.40;;;19.20;99.90;;;;;;5101761;28;20271;-63
2023/08/01 08:19:35;;;;;;;0.98;0.40;;;19.30;99.90;;;;;;5101632;28;20229;-63
2023/08/01 08:22:03;;;;;;;3.13;0.50;;;19.40;99.90;;;;;;5112544;28;20256;-62
2023/08/01 08:24:31;;;;;;;2.40;0.70;;;19.40;99.90;;;;;;5111102;28;20250;-63
2023/08/01 08:26:59;;;;;;;0.47;0.40;;;19.50;99.90;;;;;;5112413;28;20306;-62
2023/08/01 08:29:27;;;;;;;1.98;0.85;;;19.60;99.90;;;;;;5112457;28;20282;-61
2023/08/01 08:31:56;;;;;;;0.65;0.65;;;19.60;99.90;;;;;;5112554;28;20206;-62
2023/08/01 08:34:24;;;;;;;0.50;0.50;;;19.70;99.90;;;;;;5112552;28;20286;-62
2023/08/01 08:36:53;;;;;;;0.65;0.60;;;19.80;99.90;;;;;;5112199;28;20234;-63
2023/08/01 08:39:20;;;;;;;1.50;0.50;;;19.80;99.90;;;;;;5112537;28;20207;-63
2023/08/01 08:41:49;;;;;;;0.50;0.50;;;19.80;99.90;;;;;;5112570;28;20234;-62
2023/08/01 08:44:19;;;;;;;0.52;0.50;;;19.80;99.90;;;;;;5099384;28;20286;-62
2023/08/01 08:46:52;;;;;;;0.63;0.60;;;19.90;99.90;;;;;;5093898;28;20231;-63
2023/08/01 08:49:21;;;;;;;2.42;0.57;;;20.00;99.90;;;;;;5101153;28;20276;-64
2023/08/01 08:51:49;;;;;;;0.52;0.52;;;20.10;99.90;;;;;;5112084;28;20206;-62
2023/08/01 08:54:17;;;;;;;1.50;0.43;;;20.20;99.90;;;;;;5111126;28;20287;-64
2023/08/01 08:56:45;;;;;;;1.95;0.60;;;20.50;99.90;;;;;;5127021;22;20239;-74
2023/08/01 08:59:13;;;;;;;0.68;0.52;;;20.60;99.90;;;;;;5070954;28;20269;-73
2023/08/01 09:01:41;;;;;;;1.35;0.40;;;20.80;99.90;;;;;;5071946;28;20232;-72
2023/08/01 09:04:09;;;;;;;2.05;0.50;;;20.80;99.90;;;;;;5084845;28;20597;-73
2023/08/01 09:06:42;;;;;;;1.98;0.60;;;20.80;99.90;;;;;;5073863;28;20211;-73
2023/08/01 09:09:11;;;;;;;1.20;0.80;;;20.60;99.90;;;;;;5071304;28;20276;-73
2023/08/01 09:11:41;;;;;;;2.38;0.60;;;20.50;99.90;;;;;;5080548;28;20216;-73
2023/08/01 09:14:09;;;;;;;1.23;0.55;;;20.50;99.90;;;;;;5089121;28;20266;-74
2023/08/01 09:16:37;;;;;;;0.90;0.90;;;20.80;99.90;;;;;;5077789;28;20689;-73
2023/08/01 09:19:06;;;;;;;1.73;0.70;;;21.00;99.90;;;;;;5080320;28;20224;-73
2023/08/01 09:21:35;;;;;;;1.75;0.60;;;21.20;99.90;;;;;;5086184;28;20737;-73
2023/08/01 09:24:11;;;;;;;1.25;0.50;;;21.20;99.90;;;;;;5088349;28;20258;-72
2023/08/01 09:26:39;;;;;;;0.40;0.40;;;21.10;99.90;;;;;;5078709;28;20220;-73
2023/08/01 09:29:07;;;;;;;4.03;0.70;;;21.10;99.90;;;;;;5089887;28;20279;-73
2023/08/01 09:31:36;;;;;;;2.97;1.15;;;21.00;99.90;;;;;;5084554;28;20196;-73
2023/08/01 09:34:06;;;;;;;1.40;0.60;;;21.00;99.90;;;;;;5082175;28;20250;-73
2023/08/01 09:36:34;;;;;;;2.55;0.82;;;20.90;99.90;;;;;;5091538;28;20188;-73
2023/08/01 09:39:02;;;;;;;0.60;0.60;;;20.70;99.90;;;;;;5074927;28;20251;-73
2023/08/01 09:41:32;;;;;;;1.15;0.85;;;20.70;99.90;;;;;;5083402;28;20204;-73
2023/08/01 09:43:59;;;;;;;1.65;0.60;;;21.00;99.90;;;;;;5082755;28;20693;-73
2023/08/01 09:46:27;;;;;;;1.30;0.70;;;21.40;99.90;;;;;;5091380;28;20286;-74
2023/08/01 09:48:56;;;;;;;1.00;0.65;;;21.70;99.90;;;;;;5061939;28;20193;-73
2023/08/01 09:51:24;;;;;;;0.55;0.55;;;22.10;99.90;;;;;;5087484;28;20223;-73
2023/08/01 09:53:53;;;;;;;0.80;0.80;;;22.30;99.90;;;;;;5086541;28;20224;-73
2023/08/01 09:56:22;;;;;;;0.77;0.57;;;22.40;99.90;;;;;;5079108;28;20205;-74
2023/08/01 09:58:52;;;;;;;0.95;0.80;;;22.30;99.90;;;;;;5072525;28;20924;-73
2023/08/01 10:01:21;;;;;;;0.63;0.63;;;22.10;99.90;;;;;;5074301;28;20233;-74
2023/08/01 10:03:49;;;;;;;1.85;0.65;;;21.90;99.90;;;;;;5073311;28;20217;-73
2023/08/01 10:06:19;;;;;;;0.77;0.77;;;21.70;99.90;;;;;;5088141;28;20314;-74
2023/08/01 10:08:47;;;;;;;0.85;0.80;;;21.70;99.90;;;;;;5076680;28;20653;-73
2023/08/01 10:11:18;;;;;;;2.33;0.73;;;21.80;99.90;;;;;;5093114;28;20204;-74
2023/08/01 10:13:46;;;;;;;0.80;0.77;;;21.90;99.90;;;;;;5093215;28;20440;-73
2023/08/01 10:16:15;;;;;;;1.95;0.70;;;22.20;99.90;;;;;;5079529;28;20205;-73
2023/08/01 10:18:44;;;;;;;0.70;0.70;;;22.50;99.90;;;;;;5071246;28;20221;-73
2023/08/01 10:21:13;;;;;;;1.00;0.90;;;22.80;99.90;;;;;;5070746;28;20196;-73
2023/08/01 10:23:41;;;;;;;0.95;0.80;;;23.10;99.90;;;;;;5073630;28;20277;-73
2023/08/01 10:26:09;;;;;;;2.10;1.00;;;23.50;99.90;;;;;;5065485;28;20292;-73
2023/08/01 10:28:38;;;;;;;0.82;0.77;;;23.60;99.90;;;;;;5070089;28;20266;-73
2023/08/01 10:31:12;;;;;;;1.23;0.88;;;23.70;99.90;;;;;;5077354;28;20196;-73
2023/08/01 10:33:42;;;;;;;3.40;0.90;;;24.00;99.90;;;;;;5077518;28;20782;-73
2023/08/01 10:36:14;;;;;;;1.90;1.30;;;23.80;99.90;;;;;;5072883;28;20262;-73
2023/08/01 10:38:47;;;;;;;2.05;1.10;;;23.30;99.90;;;;;;5076564;28;20260;-73
2023/08/01 10:41:22;;;;;;;1.25;1.10;;;22.90;99.90;;;;;;5077929;28;20273;-74
2023/08/01 10:43:50;;;;;;;2.13;1.10;;;22.60;99.90;;;;;;5072231;28;20790;-73
2023/08/01 10:46:18;;;;;;;1.05;0.95;;;22.50;99.90;;;;;;5071888;28;20205;-73
2023/08/01 10:48:51;;;;;;;1.50;0.90;;;22.90;99.90;;;;;;5071218;28;20220;-73
2023/08/01 10:51:19;;;;;;;2.72;0.85;;;23.50;99.90;;;;;;5077007;28;20204;-73
2023/08/01 10:53:47;;;;;;;0.85;0.85;;;24.10;99.90;;;;;;5070095;28;20347;-73
2023/08/01 10:56:19;;;;;;;1.15;0.85;;;24.50;99.90;;;;;;5070663;28;20201;-73
2023/08/01 10:58:47;;;;;;;0.80;0.80;;;24.70;99.90;;;;;;5071309;28;20258;-73
2023/08/01 11:01:15;;;;;;;0.90;0.90;;;24.80;99.90;;;;;;5074842;28;20259;-74
2023/08/01 11:03:44;;;;;;;0.93;0.90;;;25.10;99.90;;;;;;5073233;28;20239;-73
2023/08/01 11:06:13;;;;;;;1.20;1.10;;;25.10;99.90;;;;;;5075616;28;20205;-73
2023/08/01 11:08:43;;;;;;;1.40;1.30;;;24.70;99.90;;;;;;5077492;28;20223;-73
2023/08/01 11:11:12;;;;;;;1.50;0.93;;;24.30;99.90;;;;;;5071863;28;20235;-74
2023/08/01 11:13:50;;;;;;;1.10;1.10;;;24.50;99.90;;;;;;5067588;28;20224;-74
2023/08/01 11:16:18;;;;;;;1.42;1.17;;;24.90;99.90;;;;;;5071565;28;20212;-74
2023/08/01 11:18:46;;;;;;;1.30;1.08;;;25.30;99.90;;;;;;5075435;28;20738;-73
2023/08/01 11:21:26;;;;;;;1.38;1.00;;;25.20;99.90;;;;;;5070599;28;20420;-73
2023/08/01 11:23:54;;;;;;;1.30;0.88;;;25.30;99.90;;;;;;5075497;28;20574;-74
2023/08/01 11:26:21;;;;;;;1.95;0.77;;;25.60;99.90;;;;;;5070433;28;20595;-74
2023/08/01 11:28:49;;;;;;;3.20;1.10;;;25.90;99.90;;;;;;5076739;28;20681;-74
2023/08/01 11:31:17;;;;;;;1.33;1.08;;;26.10;99.90;;;;;;5069776;28;20670;-73
2023/08/01 11:33:56;;;;;;;1.15;0.98;;;26.10;99.90;;;;;;5068494;28;20229;-74
2023/08/01 11:36:26;;;;;;;1.67;0.60;;;26.30;99.90;;;;;;5069321;28;20206;-74
2023/08/01 11:38:54;;;;;;;1.27;0.90;;;26.20;99.90;;;;;;5062777;28;20225;-73
2023/08/01 11:41:23;;;;;;;1.27;0.95;;;26.00;99.90;;;;;;5067567;28;20258;-74
2023/08/01 11:43:51;;;;;;;0.90;0.90;;;26.10;99.90;;;;;;5070646;28;20255;-74
2023/08/01 11:46:19;;;;;;;3.47;1.20;;;26.00;99.90;;;;;;5085417;28;20252;-73
2023/08/01 11:48:47;;;;;;;3.80;1.10;;;26.00;99.90;;;;;;5071948;28;20689;-73
2023/08/01 11:51:15;;;;;;;1.83;1.30;;;26.10;99.90;;;;;;5083689;28;20220;-74
2023/08/01 11:53:44;;;;;;;2.83;0.85;;;26.20;99.90;;;;;;5094950;22;20283;-61
2023/08/01 11:56:21;;;;;;;1.48;1.00;;;26.10;99.90;;;;;;5106047;28;20635;-61
2023/08/01 11:58:49;;;;;;;1.23;0.75;;;25.80;99.90;;;;;;5093178;28;20695;-61
2023/08/01 12:01:17;;;;;;;0.70;0.70;;;25.80;99.90;;;;;;5092697;28;20315;-61
2023/08/01 12:03:45;;;;;;;0.93;0.93;;;26.10;99.90;;;;;;5092489;28;20261;-61
2023/08/01 12:06:14;;;;;;;2.20;0.85;;;26.20;99.90;;;;;;5092321;28;20195;-61
2023/08/01 12:08:44;;;;;;;1.25;1.02;;;26.00;99.90;;;;;;5091285;28;20239;-61
2023/08/01 12:11:22;;;;;;;2.03;0.85;;;25.80;99.90;;;;;;5079012;28;20279;-61
2023/08/01 12:14:00;;;;;;;2.47;1.17;;;25.50;99.90;;;;;;5092399;28;20249;-61
2023/08/01 12:16:28;;;;;;;6.40;1.08;;;25.40;99.90;;;;;;5092498;28;20290;-61
2023/08/01 12:18:56;;;;;;;1.90;0.90;;;25.50;99.90;;;;;;5059519;28;20216;-61
2023/08/01 12:21:28;;;;;;;3.38;1.30;;;25.50;99.90;;;;;;5092420;28;20219;-61
2023/08/01 12:23:58;;;;;;;2.38;0.98;;;25.50;99.90;;;;;;5092243;28;20206;-61
2023/08/01 12:26:26;;;;;;;3.13;1.00;;;25.60;99.90;;;;;;5092125;28;20947;-60
2023/08/01 12:28:54;;;;;;;1.63;1.00;;;26.20;99.90;;;;;;5092091;28;20294;-61
2023/08/01 12:31:22;;;;;;;1.33;1.13;;;26.70;99.90;;;;;;5092166;28;20224;-61
2023/08/01 12:33:52;;;;;;;2.90;0.90;;;27.20;99.90;;;;;;5092199;28;20276;-61
2023/08/01 12:36:20;;;;;;;2.42;1.00;;;27.00;99.90;;;;;;5092212;28;20204;-61
2023/08/01 12:38:48;;;;;;;2.75;1.10;;;26.60;99.90;;;;;;5091727;28;20235;-61
2023/08/01 12:41:17;;;;;;;2.13;1.05;;;26.30;99.90;;;;;;5092051;28;20311;-61
2023/08/01 12:43:45;;;;;;;2.17;0.93;;;26.10;99.90;;;;;;5091912;28;20199;-61
2023/08/01 12:46:13;;;;;;;0.95;0.90;;;25.90;99.90;;;;;;5091801;28;20261;-61
2023/08/01 12:48:41;;;;;;;3.13;1.52;;;25.60;99.90;;;;;;5091823;28;20253;-61
2023/08/01 12:51:09;;;;;;;1.20;1.20;;;25.40;99.90;;;;;;5091784;28;20188;-61